createdAt,value
2019-02-20T00:00:14.735Z,101.83
2019-02-20T00:02:42.887Z,109.83
2019-02-20T00:05:11.251Z,103.00
2019-02-20T00:07:39.594Z,109.33
2019-02-20T00:10:08.070Z,156.83
2019-02-20T00:12:36.656Z,146.67
2019-02-20T00:15:05.785Z,136.83
2019-02-20T00:17:34.131Z,134.57
2019-02-20T00:20:02.510Z,115.03
2019-02-20T00:22:40.074Z,122.63
2019-02-20T00:25:02.228Z,107.20
2019-02-20T00:27:30.538Z,106.10
2019-02-20T00:30:01.313Z,104.93
2019-02-20T00:32:29.507Z,98.70
2019-02-20T00:34:57.921Z,102.30
2019-02-20T00:37:26.295Z,97.20
2019-02-20T00:39:54.739Z,92.73
2019-02-20T00:42:23.131Z,99.03
2019-02-20T00:44:56.095Z,95.57
2019-02-20T00:47:31.892Z,90.23
2019-02-20T00:50:00.416Z,93.93
2019-02-20T00:52:30.722Z,101.50
2019-02-20T00:54:58.878Z,98.33
2019-02-20T00:57:27.352Z,103.33
2019-02-20T00:59:57.489Z,103.20
2019-02-20T01:02:25.422Z,94.00
2019-02-20T01:04:53.898Z,87.87
2019-02-20T01:07:22.286Z,98.23
2019-02-20T01:09:50.571Z,93.63
2019-02-20T01:12:18.760Z,92.80
2019-02-20T01:14:47.116Z,96.13
2019-02-20T01:17:15.602Z,87.50
2019-02-20T01:19:43.937Z,86.47
2019-02-20T01:22:12.091Z,99.67
2019-02-20T01:24:40.834Z,92.00
2019-02-20T01:27:09.175Z,73.43
2019-02-20T01:29:37.334Z,74.23
2019-02-20T01:32:05.551Z,76.37
2019-02-20T01:34:34.003Z,70.53
2019-02-20T01:37:02.376Z,71.27
2019-02-20T01:39:30.520Z,71.57
2019-02-20T01:41:58.708Z,68.77
2019-02-20T01:44:26.870Z,64.90
2019-02-20T01:46:55.172Z,54.57
2019-02-20T01:49:23.364Z,62.50
2019-02-20T01:51:51.517Z,61.67
2019-02-20T01:54:19.666Z,61.20
2019-02-20T01:56:47.914Z,57.67
2019-02-20T01:59:16.467Z,67.30
2019-02-20T02:01:44.614Z,58.87
2019-02-20T02:04:13.375Z,64.67
2019-02-20T02:06:41.675Z,58.50
2019-02-20T02:09:10.192Z,59.37
2019-02-20T02:11:38.386Z,60.77
2019-02-20T02:14:06.844Z,63.13
2019-02-20T02:16:35.491Z,59.83
2019-02-20T02:19:03.937Z,67.10
2019-02-20T02:21:33.875Z,77.13
2019-02-20T02:24:02.194Z,72.00
2019-02-20T02:26:31.671Z,69.67
2019-02-20T02:28:59.823Z,80.70
2019-02-20T02:31:27.977Z,74.10
2019-02-20T02:33:56.190Z,74.43
2019-02-20T02:36:24.386Z,73.43
2019-02-20T02:38:52.707Z,78.70
2019-02-20T02:41:21.260Z,77.60
2019-02-20T02:43:49.480Z,72.87
2019-02-20T02:46:17.654Z,67.37
2019-02-20T02:48:46.054Z,71.77
2019-02-20T02:51:14.475Z,67.40
2019-02-20T02:53:43.242Z,66.60
2019-02-20T02:56:11.455Z,63.50
2019-02-20T02:58:39.681Z,62.10
2019-02-20T03:01:07.964Z,67.57
2019-02-20T03:03:36.571Z,69.70
2019-02-20T03:06:04.831Z,66.90
2019-02-20T03:08:32.976Z,67.07
2019-02-20T03:11:01.167Z,59.83
2019-02-20T03:13:29.598Z,67.10
2019-02-20T03:15:57.748Z,69.67
2019-02-20T03:18:25.968Z,79.97
2019-02-20T03:20:54.119Z,73.67
2019-02-20T03:23:22.408Z,73.87
2019-02-20T03:25:50.784Z,77.07
2019-02-20T03:28:20.239Z,78.67
2019-02-20T03:30:48.568Z,66.33
2019-02-20T03:33:16.943Z,68.67
2019-02-20T03:35:45.319Z,65.90
2019-02-20T03:38:13.485Z,68.77
2019-02-20T03:40:41.698Z,65.97
2019-02-20T03:43:09.865Z,73.43
2019-02-20T03:45:37.994Z,67.10
2019-02-20T03:48:06.194Z,68.03
2019-02-20T03:50:34.499Z,75.00
2019-02-20T03:53:02.930Z,80.23
2019-02-20T03:55:31.263Z,81.20
2019-02-20T03:57:59.399Z,67.93
2019-02-20T04:00:27.559Z,63.23
2019-02-20T04:02:56.330Z,70.70
2019-02-20T04:05:24.551Z,67.37
2019-02-20T04:07:52.699Z,69.23
2019-02-20T04:10:20.895Z,71.13
2019-02-20T04:12:49.894Z,79.20
2019-02-20T04:15:18.579Z,73.20
2019-02-20T04:17:47.130Z,83.87
2019-02-20T04:20:15.390Z,91.07
2019-02-20T04:22:43.617Z,94.07
2019-02-20T04:25:12.218Z,94.70
2019-02-20T04:27:40.385Z,99.87
2019-02-20T04:30:09.847Z,98.17
2019-02-20T04:32:38.036Z,94.70
2019-02-20T04:35:06.186Z,92.30
2019-02-20T04:37:34.590Z,83.67
2019-02-20T04:40:02.777Z,86.03
2019-02-20T04:42:31.440Z,88.57
2019-02-20T04:44:59.640Z,84.80
2019-02-20T04:47:27.832Z,81.33
2019-02-20T04:49:56.135Z,91.77
2019-02-20T04:52:24.293Z,87.70
2019-02-20T04:54:52.608Z,97.37
2019-02-20T04:57:21.060Z,94.10
2019-02-20T04:59:49.479Z,92.33
2019-02-20T05:02:17.925Z,98.53
2019-02-20T05:04:46.190Z,78.33
2019-02-20T05:07:14.609Z,84.97
2019-02-20T05:09:43.088Z,78.00
2019-02-20T05:12:11.432Z,67.43
2019-02-20T05:14:39.752Z,80.53
2019-02-20T05:17:09.584Z,80.53
2019-02-20T05:19:37.742Z,77.63
2019-02-20T05:22:06.064Z,87.27
2019-02-20T05:24:34.649Z,78.10
2019-02-20T05:27:03.487Z,81.00
2019-02-20T05:29:31.819Z,95.70
2019-02-20T05:32:01.351Z,114.20
2019-02-20T05:34:29.698Z,103.80
2019-02-20T05:36:57.854Z,121.90
2019-02-20T05:39:26.139Z,114.17
2019-02-20T05:41:54.421Z,103.93
2019-02-20T05:44:22.559Z,88.67
2019-02-20T05:46:50.836Z,83.70
2019-02-20T05:49:18.996Z,84.20
2019-02-20T05:51:47.573Z,74.53
2019-02-20T05:54:16.015Z,84.73
2019-02-20T05:56:44.536Z,98.90
2019-02-20T05:59:13.164Z,115.17
2019-02-20T06:01:41.357Z,146.60
2019-02-20T06:04:09.921Z,162.30
2019-02-20T06:06:38.325Z,172.80
2019-02-20T06:09:06.514Z,208.77
2019-02-20T06:11:34.747Z,201.57
2019-02-20T06:14:03.230Z,153.10
2019-02-20T06:16:31.720Z,181.17
2019-02-20T06:19:00.002Z,167.60
2019-02-20T06:21:28.373Z,161.80
2019-02-20T06:23:56.769Z,155.07
2019-02-20T06:26:24.910Z,109.40
2019-02-20T06:28:53.153Z,109.30
2019-02-20T06:31:21.439Z,92.07
2019-02-20T06:33:50.771Z,93.03
2019-02-20T06:36:19.275Z,107.00
2019-02-20T06:38:47.608Z,91.57
2019-02-20T06:41:16.140Z,91.77
2019-02-20T06:43:44.290Z,84.23
2019-02-20T06:46:12.849Z,90.93
2019-02-20T06:48:41.011Z,92.73
2019-02-20T06:51:09.337Z,81.87
2019-02-20T06:53:37.987Z,85.77
2019-02-20T06:56:06.603Z,81.33
2019-02-20T06:58:35.129Z,80.00
2019-02-20T07:01:03.622Z,76.47
2019-02-20T07:03:32.317Z,66.93
2019-02-20T07:06:17.370Z,52.33
2019-02-20T07:08:49.972Z,54.40
2019-02-20T07:11:28.600Z,50.87
2019-02-20T07:13:58.697Z,42.13
2019-02-20T07:16:31.614Z,45.07
2019-02-20T07:19:04.083Z,52.90
2019-02-20T07:21:39.916Z,51.83
2019-02-20T07:24:09.829Z,47.57
2019-02-20T07:26:39.612Z,49.80
2019-02-20T07:29:18.834Z,45.20
2019-02-20T07:31:46.995Z,35.23
2019-02-20T07:34:15.253Z,32.90
2019-02-20T07:36:43.456Z,37.13
2019-02-20T07:39:11.800Z,36.77
2019-02-20T07:41:40.384Z,40.87
2019-02-20T07:44:08.830Z,34.57
2019-02-20T07:46:36.989Z,35.00
2019-02-20T07:49:05.151Z,38.73
2019-02-20T07:51:33.371Z,33.80
2019-02-20T07:54:01.991Z,33.77
2019-02-20T07:56:30.157Z,29.97
2019-02-20T07:58:58.351Z,34.83
2019-02-20T08:01:26.514Z,26.83
2019-02-20T08:03:54.697Z,21.80
2019-02-20T08:06:23.415Z,22.27
2019-02-20T08:08:51.570Z,27.70
2019-02-20T08:11:19.721Z,22.60
2019-02-20T08:13:48.003Z,23.13
2019-02-20T08:16:16.562Z,22.13
2019-02-20T08:18:44.692Z,21.37
2019-02-20T08:21:12.896Z,22.47
2019-02-20T08:23:41.238Z,25.07
2019-02-20T08:26:09.458Z,28.90
2019-02-20T08:28:38.051Z,22.13
2019-02-20T08:31:06.226Z,22.50
2019-02-20T08:33:34.669Z,23.43
2019-02-20T08:36:04.282Z,22.10
2019-02-20T08:38:32.695Z,21.70
2019-02-20T08:41:00.851Z,20.20
2019-02-20T08:43:29.805Z,26.97
2019-02-20T08:45:57.970Z,21.07
2019-02-20T08:48:26.587Z,23.53
2019-02-20T08:50:54.758Z,20.60
2019-02-20T08:53:22.913Z,18.23
2019-02-20T08:55:51.067Z,22.87
2019-02-20T08:58:19.271Z,17.30
2019-02-20T09:00:47.426Z,21.87
2019-02-20T09:03:15.749Z,20.03
2019-02-20T09:05:43.949Z,20.40
2019-02-20T09:08:12.109Z,19.83
2019-02-20T09:10:40.539Z,19.80
2019-02-20T09:13:08.694Z,18.60
2019-02-20T09:15:38.578Z,26.20
2019-02-20T09:18:07.216Z,22.03
2019-02-20T09:20:35.557Z,22.00
2019-02-20T09:23:04.169Z,26.37
2019-02-20T09:25:41.071Z,17.97
2019-02-20T09:28:02.427Z,17.97
2019-02-20T09:30:30.668Z,18.73
2019-02-20T09:33:00.094Z,14.77
2019-02-20T09:35:28.553Z,14.93
2019-02-20T09:37:58.068Z,12.83
2019-02-20T09:40:26.542Z,16.17
2019-02-20T09:42:55.042Z,17.00
2019-02-20T09:45:23.207Z,18.37
2019-02-20T09:47:51.576Z,16.30
2019-02-20T09:50:23.122Z,313.17
2019-02-20T09:52:53.440Z,232.00
2019-02-20T09:55:21.590Z,162.63
2019-02-20T09:57:49.963Z,311.30
2019-02-20T10:00:18.945Z,231.03
2019-02-20T10:02:47.463Z,52.67
2019-02-20T10:05:16.161Z,59.90
2019-02-20T10:07:44.428Z,239.73
2019-02-20T10:10:12.746Z,120.20
2019-02-20T10:12:41.317Z,41.23
2019-02-20T10:15:13.995Z,15.50
2019-02-20T10:17:46.095Z,18.40
2019-02-20T10:20:14.603Z,13.50
2019-02-20T10:22:42.750Z,14.23
2019-02-20T10:25:11.524Z,14.73
2019-02-20T10:27:39.666Z,18.77
2019-02-20T10:30:09.566Z,18.90
2019-02-20T10:32:37.858Z,19.50
2019-02-20T10:35:07.180Z,24.47
2019-02-20T10:37:35.736Z,15.63
2019-02-20T10:40:06.101Z,13.03
2019-02-20T10:42:34.255Z,12.80
2019-02-20T10:45:02.408Z,11.60
2019-02-20T10:47:30.596Z,14.93
2019-02-20T10:49:58.748Z,9.10
2019-02-20T10:52:26.902Z,13.67
2019-02-20T10:54:57.829Z,10.07
2019-02-20T10:57:25.012Z,10.43
2019-02-20T10:59:53.174Z,130.07
2019-02-20T11:02:21.365Z,16.47
2019-02-20T11:04:50.188Z,61.57
2019-02-20T11:07:18.500Z,12.57
2019-02-20T11:09:46.721Z,294.17
2019-02-20T11:12:15.246Z,13.70
2019-02-20T11:14:43.459Z,26.53
2019-02-20T11:17:11.931Z,16.17
2019-02-20T11:19:40.084Z,12.27
2019-02-20T11:22:08.443Z,8.17
2019-02-20T11:24:36.633Z,22.33
2019-02-20T11:27:04.930Z,66.43
2019-02-20T11:29:33.283Z,80.80
2019-02-20T11:32:01.536Z,11.50
2019-02-20T11:34:29.722Z,10.60
2019-02-20T11:36:58.112Z,13.63
2019-02-20T11:39:26.594Z,13.80
2019-02-20T11:41:54.824Z,56.07
2019-02-20T11:44:22.974Z,12.23
2019-02-20T11:46:51.212Z,9.67
2019-02-20T11:49:19.584Z,12.07
2019-02-20T11:51:48.018Z,20.43
2019-02-20T11:54:16.365Z,12.23
2019-02-20T11:56:44.524Z,11.47
2019-02-20T11:59:12.692Z,228.63
2019-02-20T12:01:40.882Z,13.37
2019-02-20T12:04:09.039Z,11.33
2019-02-20T12:06:37.283Z,7.77
2019-02-20T12:09:05.481Z,8.10
2019-02-20T12:11:33.753Z,13.07
2019-02-20T12:14:02.085Z,17.67
2019-02-20T12:16:30.281Z,9.63
2019-02-20T12:18:58.572Z,9.40
2019-02-20T12:21:27.172Z,10.30
2019-02-20T12:23:55.703Z,24.57
2019-02-20T12:26:24.146Z,8.07
2019-02-20T12:28:52.644Z,10.00
2019-02-20T12:31:21.005Z,7.77
2019-02-20T12:33:49.484Z,9.80
2019-02-20T12:36:17.632Z,8.93
2019-02-20T12:38:45.891Z,10.30
2019-02-20T12:41:14.241Z,34.67
2019-02-20T12:43:43.508Z,11.47
2019-02-20T12:46:11.868Z,10.77
2019-02-20T12:48:40.408Z,14.00
2019-02-20T12:51:08.584Z,36.53
2019-02-20T12:53:36.847Z,21.23
2019-02-20T12:56:09.992Z,11.63
2019-02-20T12:58:35.080Z,11.10
2019-02-20T13:01:03.422Z,9.90
2019-02-20T13:03:31.646Z,8.70
2019-02-20T13:05:59.856Z,9.03
2019-02-20T13:08:27.985Z,11.33
2019-02-20T13:10:56.677Z,17.43
2019-02-20T13:13:25.236Z,19.20
2019-02-20T13:15:53.644Z,9.40
2019-02-20T13:18:21.960Z,20.17
2019-02-20T13:20:50.309Z,9.50
2019-02-20T13:23:20.341Z,14.60
2019-02-20T13:25:48.639Z,13.93
2019-02-20T13:28:16.864Z,18.50
2019-02-20T13:30:45.524Z,15.23
2019-02-20T13:33:13.826Z,12.57
2019-02-20T13:35:42.059Z,22.53
2019-02-20T13:38:13.242Z,10.33
2019-02-20T13:40:41.527Z,13.70
2019-02-20T13:43:09.694Z,34.83
2019-02-20T13:45:42.525Z,15.07
2019-02-20T13:48:10.852Z,12.33
2019-02-20T13:50:39.216Z,14.57
2019-02-20T13:53:07.644Z,15.43
2019-02-20T13:55:35.805Z,18.27
2019-02-20T13:58:04.135Z,10.03
2019-02-20T14:00:32.560Z,10.27
2019-02-20T14:03:01.401Z,12.00
2019-02-20T14:05:29.631Z,18.97
2019-02-20T14:07:57.831Z,12.80
2019-02-20T14:10:26.322Z,21.83
2019-02-20T14:12:57.600Z,18.93
2019-02-20T14:15:25.821Z,10.70
2019-02-20T14:17:54.142Z,8.47
2019-02-20T14:20:22.809Z,8.13
2019-02-20T14:22:51.170Z,21.90
2019-02-20T14:25:19.508Z,27.73
2019-02-20T14:28:00.184Z,40.47
2019-02-20T14:30:29.065Z,21.53
2019-02-20T14:32:57.293Z,29.53
2019-02-20T14:35:25.819Z,31.07
2019-02-20T14:37:55.538Z,19.80
2019-02-20T14:40:24.969Z,17.03
2019-02-20T14:42:53.349Z,20.40
2019-02-20T14:45:21.734Z,14.80
2019-02-20T14:47:51.257Z,21.73
2019-02-20T14:50:20.865Z,21.93
2019-02-20T14:52:49.855Z,23.67
2019-02-20T14:55:21.318Z,20.10
2019-02-20T14:57:51.117Z,18.83
2019-02-20T15:00:24.821Z,14.83
2019-02-20T15:02:53.286Z,17.60
2019-02-20T15:05:21.739Z,22.40
2019-02-20T15:07:50.103Z,18.67
2019-02-20T15:10:19.130Z,26.93
2019-02-20T15:12:51.285Z,13.07
2019-02-20T15:15:20.979Z,45.20
2019-02-20T15:20:38.192Z,20.83
2019-02-20T15:23:16.791Z,14.80
2019-02-20T15:25:45.399Z,18.67
2019-02-20T15:28:16.078Z,15.93
2019-02-20T15:30:47.025Z,19.57
2019-02-20T15:33:15.596Z,17.70
2019-02-20T15:35:44.637Z,28.90
2019-02-20T15:38:12.959Z,184.43
2019-02-20T15:40:44.419Z,31.33
2019-02-20T15:43:13.132Z,24.70
2019-02-20T15:45:41.878Z,19.63
2019-02-20T15:48:10.698Z,48.77
2019-02-20T15:50:42.995Z,94.03
2019-02-20T15:53:11.264Z,62.80
2019-02-20T15:55:41.177Z,65.73
2019-02-20T15:58:10.547Z,63.37
2019-02-20T16:00:39.062Z,48.53
2019-02-20T16:03:07.207Z,35.00
2019-02-20T16:05:35.818Z,19.40
2019-02-20T16:08:04.760Z,15.47
2019-02-20T16:10:34.779Z,18.73
2019-02-20T16:13:04.303Z,18.43
2019-02-20T16:15:33.014Z,37.83
2019-02-20T16:18:01.475Z,35.07
2019-02-20T16:20:36.256Z,40.97
2019-02-20T16:23:05.626Z,59.60
2019-02-20T16:25:36.193Z,102.53
2019-02-20T16:28:04.836Z,98.43
2019-02-20T16:30:33.701Z,132.70
2019-02-20T16:33:01.947Z,119.57
2019-02-20T16:35:30.533Z,415.80
2019-02-20T16:38:00.597Z,231.83
2019-02-20T16:40:29.283Z,248.20
2019-02-20T16:43:01.590Z,43.83
2019-02-20T16:45:31.184Z,68.50
2019-02-20T16:47:59.569Z,49.30
2019-02-20T16:50:28.127Z,77.50
2019-02-20T16:52:57.805Z,44.80
2019-02-20T16:55:26.106Z,94.73
2019-02-20T16:57:56.916Z,94.70
2019-02-20T17:00:24.769Z,98.93
2019-02-20T17:02:53.451Z,63.37
2019-02-20T17:05:22.438Z,144.67
2019-02-20T17:07:50.936Z,69.10
2019-02-20T17:10:19.844Z,97.37
2019-02-20T17:12:48.284Z,92.17
2019-02-20T17:15:17.468Z,154.17
2019-02-20T17:17:45.947Z,222.70
2019-02-20T17:20:17.597Z,252.33
2019-02-20T17:22:46.626Z,401.50
2019-02-20T17:25:19.756Z,178.50
2019-02-20T17:27:47.986Z,331.63
2019-02-20T17:30:16.960Z,148.97
2019-02-20T17:32:45.616Z,57.73
2019-02-20T17:35:14.122Z,99.17
2019-02-20T17:37:43.214Z,179.97
2019-02-20T17:40:12.273Z,126.03
2019-02-20T17:42:41.102Z,93.83
2019-02-20T17:45:11.606Z,114.00
2019-02-20T17:47:47.482Z,83.57
2019-02-20T17:50:17.856Z,141.97
2019-02-20T17:52:46.605Z,107.27
2019-02-20T17:55:18.956Z,156.63
2019-02-20T17:57:47.382Z,132.80
2019-02-20T18:00:19.184Z,174.50
2019-02-20T18:02:51.514Z,103.73
2019-02-20T18:05:19.909Z,84.23
2019-02-20T18:07:51.861Z,83.70
2019-02-20T18:10:19.463Z,89.17
2019-02-20T18:12:47.888Z,100.63
2019-02-20T18:15:17.209Z,74.70
2019-02-20T18:17:45.748Z,82.63
2019-02-20T18:20:14.038Z,70.73
2019-02-20T18:22:43.802Z,66.03
2019-02-20T18:25:12.265Z,57.47
2019-02-20T18:27:41.375Z,53.50
2019-02-20T18:30:12.318Z,74.10
2019-02-20T18:32:41.475Z,79.17
2019-02-20T18:35:15.792Z,81.07
2019-02-20T18:37:41.226Z,75.33
2019-02-20T18:40:10.750Z,74.10
2019-02-20T18:42:38.965Z,68.23
2019-02-20T18:45:08.703Z,57.10
2019-02-20T18:47:38.557Z,41.77
2019-02-20T18:50:08.324Z,49.53
2019-02-20T18:52:36.543Z,45.67
2019-02-20T18:55:06.517Z,50.30
2019-02-20T18:57:37.230Z,54.37
2019-02-20T19:00:07.166Z,72.17
2019-02-20T19:02:35.328Z,362.60
2019-02-20T19:05:03.983Z,188.43
2019-02-20T19:07:32.486Z,158.43
2019-02-20T19:10:00.752Z,183.03
2019-02-20T19:12:45.222Z,113.57
2019-02-20T19:15:21.235Z,219.97
2019-02-20T19:18:00.623Z,177.53
2019-02-20T19:20:31.994Z,171.50
2019-02-20T19:23:20.714Z,181.13
2019-02-20T19:25:54.438Z,179.53
2019-02-20T19:28:27.665Z,171.57
2019-02-20T19:30:58.781Z,198.13
2019-02-20T19:33:46.058Z,218.03
2019-02-20T19:36:16.548Z,201.03
2019-02-20T19:38:58.915Z,215.50
2019-02-20T19:41:46.026Z,219.17
2019-02-20T19:44:18.959Z,129.30
2019-02-20T19:46:48.787Z,114.63
2019-02-20T19:49:37.242Z,115.00
2019-02-20T19:52:09.802Z,80.73
2019-02-20T19:54:42.069Z,87.70
2019-02-20T19:57:14.870Z,86.90
2019-02-20T19:59:48.785Z,95.83
2019-02-20T20:02:32.402Z,92.60
2019-02-20T20:05:11.818Z,68.27
2019-02-20T20:07:51.820Z,68.60
2019-02-20T20:10:30.803Z,73.30
2019-02-20T20:13:04.310Z,62.10
2019-02-20T20:15:36.835Z,49.90
2019-02-20T20:18:23.221Z,69.70
2019-02-20T20:20:59.255Z,54.00
2019-02-20T20:23:46.204Z,52.03
2019-02-20T20:26:23.096Z,49.27
2019-02-20T20:28:54.222Z,53.50
2019-02-20T20:31:34.069Z,45.87
2019-02-20T20:34:13.888Z,40.60
2019-02-20T20:36:44.302Z,76.83
2019-02-20T20:39:20.105Z,75.73
2019-02-20T20:41:53.012Z,80.87
2019-02-20T20:44:28.900Z,66.13
2019-02-20T20:47:02.463Z,71.87
2019-02-20T20:49:39.892Z,110.47
2019-02-20T20:52:26.517Z,84.67
2019-02-20T20:55:00.703Z,215.57
2019-02-20T20:57:43.535Z,72.30
2019-02-20T21:00:20.683Z,67.57
2019-02-20T21:02:51.086Z,48.73
2019-02-20T21:05:21.157Z,43.47
2019-02-20T21:07:51.474Z,58.90
2019-02-20T21:10:21.784Z,64.50
2019-02-20T21:13:08.059Z,41.17
2019-02-20T21:15:38.167Z,47.00
2019-02-20T21:18:24.641Z,32.10
2019-02-20T21:20:54.748Z,30.40
2019-02-20T21:23:42.661Z,26.60
2019-02-20T21:26:24.663Z,22.97
2019-02-20T21:28:57.993Z,25.23
2019-02-20T21:31:39.813Z,23.73
2019-02-20T21:34:09.663Z,27.00
2019-02-20T21:36:45.474Z,31.93
2019-02-20T21:39:18.113Z,20.07
2019-02-20T21:42:04.779Z,30.27
2019-02-20T21:44:35.216Z,24.30
2019-02-20T21:47:05.341Z,23.07
2019-02-20T21:49:41.151Z,25.40
2019-02-20T21:52:27.686Z,71.00
2019-02-20T21:55:00.469Z,51.70
2019-02-20T21:57:36.353Z,89.20
2019-02-20T22:00:15.247Z,76.87
2019-02-20T22:02:48.124Z,43.17
2019-02-20T22:05:34.322Z,47.77
2019-02-20T22:08:06.796Z,42.87
2019-02-20T22:10:48.687Z,65.67
2019-02-20T22:13:18.519Z,80.17
2019-02-20T22:15:51.384Z,84.17
2019-02-20T22:18:21.156Z,59.93
2019-02-20T22:21:07.485Z,69.03
2019-02-20T22:23:43.175Z,64.97
2019-02-20T22:26:12.992Z,66.07
2019-02-20T22:28:43.020Z,60.60
2019-02-20T22:31:15.515Z,53.47
2019-02-20T22:34:03.662Z,51.67
2019-02-20T22:36:42.575Z,44.17
2019-02-20T22:39:27.867Z,51.00
2019-02-20T22:42:12.680Z,45.10
2019-02-20T22:44:48.688Z,44.50
2019-02-20T22:47:27.591Z,60.10
2019-02-20T22:50:03.214Z,55.80
2019-02-20T22:52:36.027Z,31.77
2019-02-20T22:55:09.325Z,68.40
2019-02-20T22:57:39.353Z,81.13
2019-02-20T23:00:34.298Z,81.47
2019-02-20T23:03:04.942Z,72.10
2019-02-20T23:05:52.321Z,68.27
2019-02-20T23:08:22.125Z,71.97
2019-02-20T23:10:58.364Z,65.30
2019-02-20T23:13:28.385Z,64.03
2019-02-20T23:15:56.884Z,58.07
2019-02-20T23:18:25.368Z,68.90
2019-02-20T23:20:53.844Z,54.87
2019-02-20T23:23:21.937Z,45.97
2019-02-20T23:25:50.654Z,40.70
2019-02-20T23:28:18.838Z,39.00
2019-02-20T23:30:47.040Z,52.97
2019-02-20T23:33:15.391Z,41.03
2019-02-20T23:35:43.808Z,31.40
2019-02-20T23:38:12.163Z,30.07
2019-02-20T23:40:41.542Z,35.60
2019-02-20T23:43:09.959Z,40.53
2019-02-20T23:45:38.293Z,33.93
2019-02-20T23:48:06.724Z,45.40
2019-02-20T23:50:35.045Z,48.47
2019-02-20T23:53:03.625Z,50.20
2019-02-20T23:55:31.892Z,48.17
2019-02-20T23:58:00.048Z,29.20
